Sturgeon Bay, WI (54235)

6:49 AM CST on December 10, 2016 (GMT -0600)
City of Sturgeon Bay | | Change Station
Active Advisory: Winter Storm Watch

Elev 633 ft 44.84 °N, 87.35 °W | Updated 51 minutes ago

Overcast
Overcast
18.3 °F
Feels Like 11 °F
N
5.3
Wind Variable Wind from SSW

Today
High -- | Low -- °F
--% Chance of Precip.
Yesterday
High -- | Low -- °F
Precip. -- in
Pressure 30.41 in
Visibility 10.0 miles
Clouds Overcast 3200 ft
Windchill 11 °F
Dew Point 12 °F
Humidity 75%
Rainfall 0.10 in
Snow Depth Not available.
7:16 AM 4:08 PM
Waxing Gibbous, 83% visible
SPECI KSUE 101222Z AUTO 29012G15KT 10SM OVC032 M08/M14 A3041 RMK AO2 SNE11 P0000 FZRANO
Pressure 30.41 in
Visibility 10.0 miles
Clouds Overcast 3200 ft
Windchill 11 °F
Dew Point 12 °F
Humidity 75%
Rainfall 0.10 in
Snow Depth Not available.
7:16 AM 4:08 PM
Waxing Gibbous, 83% visible
SPECI KSUE 101222Z AUTO 29012G15KT 10SM OVC032 M08/M14 A3041 RMK AO2 SNE11 P0000 FZRANO

10-Day Weather Forecast

Almanac

Astronomy

Dec. 10, 2016 Rise Set
Actual Time
Civil Twilight
Nautical Twilight
Astronomical Twilight
Moon
Length of Visible Light
Length of Day
Tomorrow will be .
, % of the Moon is Illuminated

Today's Extremes

State Highs State Lows

Community

WunderPhotos

Upload Photos

1,956,540 photos uploaded!

WunderBlog® & News

Nearby

Air Quality

  Air Quality AQ Index Pollutant
Not available.

Snow Depth

Station Depth Elevation

Earthquake Activity

City Distance Mag. Time & Date
Minimum magnitude displayed is 2.5.

Coastal Water Temperatures

Place Temperature

Stations

Nearby Weather Stations

Station Location Temp. Windchill Dew Point Humidity Wind Precip. Elev Updated Type
                   

Watches & Warnings

Winter Storm Watch
Issued: 3:56 AM CST Dec. 10, 2016 – National Weather Service

... Winter Storm Watch remains in effect from late tonight through
late Sunday night...

* timing... late tonight through Sunday night. The heaviest snow
should fall Sunday afternoon and evening.

* Snow accumulations... around 6 inches... and possibly an
additional inch or two at some locations.

* Main impact... hazardous travel will develop late tonight and
continue through Sunday night.

Precautionary/preparedness actions...

A Winter Storm Watch means there is a potential for significant
snow accumulations that may impact travel. Continue to monitor
the latest forecasts.




Skowronski